地図

経路データ

SID SEASON NUMBER BASIN SUBBASIN NAME ISO_TIME NATURE LAT LON WMO_WIND WMO_PRES WMO_AGENCY TRACK_TYPE DIST2LAND LANDFALL IFLAG USA_AGENCY USA_ATCF_ID USA_LAT USA_LON USA_RECORD USA_STATUS USA_WIND USA_PRES USA_SSHS USA_R34_NE USA_R34_SE USA_R34_SW USA_R34_NW USA_R50_NE USA_R50_SE USA_R50_SW USA_R50_NW USA_R64_NE USA_R64_SE USA_R64_SW USA_R64_NW USA_POCI USA_ROCI USA_RMW USA_EYE TOKYO_LAT TOKYO_LON TOKYO_GRADE TOKYO_WIND TOKYO_PRES TOKYO_R50_DIR TOKYO_R50_LONG TOKYO_R50_SHORT TOKYO_R30_DIR TOKYO_R30_LONG TOKYO_R30_SHORT TOKYO_LAND CMA_LAT CMA_LON CMA_CAT CMA_WIND CMA_PRES HKO_LAT HKO_LON HKO_CAT HKO_WIND HKO_PRES NEWDELHI_LAT NEWDELHI_LON NEWDELHI_GRADE NEWDELHI_WIND NEWDELHI_PRES NEWDELHI_CI NEWDELHI_DP NEWDELHI_POCI REUNION_LAT REUNION_LON REUNION_TYPE REUNION_WIND REUNION_PRES REUNION_TNUM REUNION_CI REUNION_RMW REUNION_R34_NE REUNION_R34_SE REUNION_R34_SW REUNION_R34_NW REUNION_R50_NE REUNION_R50_SE REUNION_R50_SW REUNION_R50_NW REUNION_R64_NE REUNION_R64_SE REUNION_R64_SW REUNION_R64_NW BOM_LAT BOM_LON BOM_TYPE BOM_WIND BOM_PRES BOM_TNUM BOM_CI BOM_RMW BOM_R34_NE BOM_R34_SE BOM_R34_SW BOM_R34_NW BOM_R50_NE BOM_R50_SE BOM_R50_SW BOM_R50_NW BOM_R64_NE BOM_R64_SE BOM_R64_SW BOM_R64_NW BOM_ROCI BOM_POCI BOM_EYE BOM_POS_METHOD BOM_PRES_METHOD NADI_LAT NADI_LON NADI_CAT NADI_WIND NADI_PRES WELLINGTON_LAT WELLINGTON_LON WELLINGTON_WIND WELLINGTON_PRES DS824_LAT DS824_LON DS824_STAGE DS824_WIND DS824_PRES TD9636_LAT TD9636_LON TD9636_STAGE TD9636_WIND TD9636_PRES TD9635_LAT TD9635_LON TD9635_WIND TD9635_PRES TD9635_ROCI NEUMANN_LAT NEUMANN_LON NEUMANN_CLASS NEUMANN_WIND NEUMANN_PRES MLC_LAT MLC_LON MLC_CLASS MLC_WIND MLC_PRES USA_GUST BOM_GUST BOM_GUST_PER REUNION_GUST REUNION_GUST_PER USA_SEAHGT USA_SEARAD_NE USA_SEARAD_SE USA_SEARAD_SW USA_SEARAD_NW STORM_SPEED STORM_DIR
1911350S11049 1912 73 SI MM NOT_NAMED 1911-12-16 06:00:00 NR -10.7000 48.5000 reunion main 174 174 _____O________ -1 -10.7000 48.5000 99 9.90000 1 265
1911350S11049 1912 73 SI MM NOT_NAMED 1911-12-16 09:00:00 NR -10.7065 48.4254 main 179 179 _____P________ -1 -10.7065 48.4254 99 1 263
1911350S11049 1912 73 SI MM NOT_NAMED 1911-12-16 12:00:00 NR -10.7172 48.3495 main 184 184 _____P________ -1 -10.7172 48.3495 99 2 259
1911350S11049 1912 73 SI MM NOT_NAMED 1911-12-16 15:00:00 NR -10.7361 48.2713 main 184 181 _____P________ -1 -10.7361 48.2713 99 2 253
1911350S11049 1912 73 SI MM NOT_NAMED 1911-12-16 18:00:00 NR -10.7674 48.1893 main 181 181 _____P________ -1 -10.7674 48.1893 99 2 245
1911350S11049 1912 73 SI MM NOT_NAMED 1911-12-16 21:00:00 NR -10.8153 48.1024 main 188 180 _____P________ -1 -10.8153 48.1024 99 2 237
1911350S11049 1912 73 SI MM NOT_NAMED 1911-12-17 00:00:00 NR -10.8840 48.0094 main 187 187 _____P________ -1 -10.8840 48.0094 99 3 230
1911350S11049 1912 73 SI MM NOT_NAMED 1911-12-17 03:00:00 NR -10.9775 47.9090 main 187 187 _____P________ -1 -10.9775 47.9090 99 3 224
1911350S11049 1912 73 SI MM NOT_NAMED 1911-12-17 06:00:00 NR -11.1000 47.8000 reunion main 187 179 _____O________ -1 -11.1000 47.8000 99 9.90000 4 219
1911350S11049 1912 73 SI MM NOT_NAMED 1911-12-17 09:00:00 NR -11.2541 47.6821 main 180 179 _____P________ -1 -11.2541 47.6821 99 4 215
1911350S11049 1912 73 SI MM NOT_NAMED 1911-12-17 12:00:00 NR -11.4358 47.5592 main 179 173 _____P________ -1 -11.4358 47.5592 99 5 212
1911350S11049 1912 73 SI MM NOT_NAMED 1911-12-17 15:00:00 NR -11.6396 47.4363 main 182 171 _____P________ -1 -11.6396 47.4363 99 5 209
1911350S11049 1912 73 SI MM NOT_NAMED 1911-12-17 18:00:00 NR -11.8602 47.3186 main 176 172 _____P________ -1 -11.8602 47.3186 99 5 206
1911350S11049 1912 73 SI MM NOT_NAMED 1911-12-17 21:00:00 NR -12.0920 47.2110 main 179 175 _____P________ -1 -12.0920 47.2110 99 5 203
1911350S11049 1912 73 SI MM NOT_NAMED 1911-12-18 00:00:00 NR -12.3295 47.1186 main 175 155 _____P________ -1 -12.3295 47.1186 99 5 198
1911350S11049 1912 73 SI MM NOT_NAMED 1911-12-18 03:00:00 NR -12.5673 47.0466 main 155 140 _____P________ -1 -12.5673 47.0466 99 5 194
1911350S11049 1912 73 SI MM NOT_NAMED 1911-12-18 06:00:00 NR -12.8000 47.0000 reunion main 140 125 _____O________ -1 -12.8000 47.0000 99 9.90000 5 187
1911350S11049 1912 73 SI MM NOT_NAMED 1911-12-18 09:00:00 NR -13.0103 46.9825 main 125 112 _____P________ -1 -13.0103 46.9825 99 4 0
1911350S11049 1912 73 SI MM NOT_NAMED 1911-12-18 12:00:00 NR -13.2192 46.9890 main 112 102 _____P________ -1 -13.2192 46.9890 99 4 176
1911350S11049 1912 73 SI MM NOT_NAMED 1911-12-18 15:00:00 NR -13.4259 47.0172 main 102 87 _____P________ -1 -13.4259 47.0172 99 4 170
1911350S11049 1912 73 SI MM NOT_NAMED 1911-12-18 18:00:00 NR -13.6298 47.0646 main 87 86 _____P________ -1 -13.6298 47.0646 99 4 165
1911350S11049 1912 73 SI MM NOT_NAMED 1911-12-18 21:00:00 NR -13.8299 47.1290 main 86 70 _____P________ -1 -13.8299 47.1290 99 4 161
1911350S11049 1912 73 SI MM NOT_NAMED 1911-12-19 00:00:00 NR -14.0255 47.2080 main 70 48 _____P________ -1 -14.0255 47.2080 99 4 157
1911350S11049 1912 73 SI MM NOT_NAMED 1911-12-19 03:00:00 NR -14.2158 47.2991 main 48 32 _____P________ -1 -14.2158 47.2991 99 4 153
1911350S11049 1912 73 SI MM NOT_NAMED 1911-12-19 06:00:00 NR -14.4000 47.4000 reunion main 32 22 _____O________ -1 -14.4000 47.4000 99 9.90000 4 152
1911350S11049 1912 73 SI MM NOT_NAMED 1911-12-19 09:00:00 NR -14.5938 47.5064 main 22 10 _____P________ -1 -14.5938 47.5064 99 4 150
1911350S11049 1912 73 SI MM NOT_NAMED 1911-12-19 12:00:00 NR -14.7833 47.6267 main 10 0 _____P________ -1 -14.7833 47.6267 99 4 147
1911350S11049 1912 73 SI MM NOT_NAMED 1911-12-19 15:00:00 NR -14.9663 47.7566 main 0 0 _____P________ -1 -14.9663 47.7566 99 4 144
1911350S11049 1912 73 SI MM NOT_NAMED 1911-12-19 18:00:00 NR -15.1403 47.8918 main 0 0 _____P________ -1 -15.1403 47.8918 99 4 142
1911350S11049 1912 73 SI MM NOT_NAMED 1911-12-19 21:00:00 NR -15.3030 48.0281 main 0 0 _____P________ -1 -15.3030 48.0281 99 4 140
1911350S11049 1912 73 SI MM NOT_NAMED 1911-12-20 00:00:00 NR -15.4521 48.1611 main 0 0 _____P________ -1 -15.4521 48.1611 99 4 138
1911350S11049 1912 73 SI MM NOT_NAMED 1911-12-20 03:00:00 NR -15.5852 48.2865 main 0 0 _____P________ -1 -15.5852 48.2865 99 3 137
1911350S11049 1912 73 SI MM NOT_NAMED 1911-12-20 06:00:00 NR -15.7000 48.4000 reunion main 0 0 _____O________ -1 -15.7000 48.4000 99 9.90000 3 136
1911350S11049 1912 73 SI MM NOT_NAMED 1911-12-20 09:00:00 NR -15.7950 48.4983 main 0 0 _____P________ -1 -15.7950 48.4983 99 2 134
1911350S11049 1912 73 SI MM NOT_NAMED 1911-12-20 12:00:00 NR -15.8720 48.5823 main 0 0 _____P________ -1 -15.8720 48.5823 99 2 133
1911350S11049 1912 73 SI MM NOT_NAMED 1911-12-20 15:00:00 NR -15.9336 48.6540 main 0 0 _____P________ -1 -15.9336 48.6540 99 2 131
1911350S11049 1912 73 SI MM NOT_NAMED 1911-12-20 18:00:00 NR -15.9823 48.7155 main 0 0 _____P________ -1 -15.9823 48.7155 99 1 128
1911350S11049 1912 73 SI MM NOT_NAMED 1911-12-20 21:00:00 NR -16.0207 48.7688 main 0 0 _____P________ -1 -16.0207 48.7688 99 1 126
1911350S11049 1912 73 SI MM NOT_NAMED 1911-12-21 00:00:00 NR -16.0514 48.8159 main 0 0 _____P________ -1 -16.0514 48.8159 99 1 123
1911350S11049 1912 73 SI MM NOT_NAMED 1911-12-21 03:00:00 NR -16.0770 48.8590 main 0 0 _____P________ -1 -16.0770 48.8590 99 1 120
1911350S11049 1912 73 SI MM NOT_NAMED 1911-12-21 06:00:00 NR -16.1000 48.9000 reunion main 0 _____O________ -1 -16.1000 48.9000 99 9.90000 1 126

IBTrACS Databaseについて

本データベースは、米国NOAAが公開する1842年以降の世界の熱帯低気圧のベストトラックデータアーカイブInternational Best Track Archive for Climate Stewardship (IBTrACS)を、ウェブで閲覧しやすい形式に変換したものです。

最終更新日:2021-10-19